Terminal Aerodrome Forecast
Issued by NWS

Home | Current Version | Previous Version | Text Only | Print | Product List | Glossary On
Versions: 1 2 3 4 5 6 7 8 9 10 11 12
000
FTUS44 KLIX 200523
TAFHDC
TAF
KHDC 200523Z 2006/2106 00000KT P6SM SKC
     FM202000 11005KT P6SM SCT040 BKN050 PROB30 2020/2024 4SM TSRA
      BKN035CB=

USA.gov is the U.S. government's official web portal to all federal, state and local government web resources and services.